Time;durP1;ratioP1;P1;durP2;ratioP2;P2;SDS_P1;SDS_P2;PMS_P1;PMS_P2;Temp;Humidity;BMP_temperature;BMP_pressure;BME280_temperature;BME280_humidity;BME280_pressure;Samples;Min_cycle;Max_cycle;Signal;HPM_P1;HPM_P2
2023/06/16 00:02:13;;;;;;;3.47;2.78;;;16.00;88.30;;;15.84;68.33;97238.22;5044566;28;20478;-36
2023/06/16 00:04:40;;;;;;;4.90;2.70;;;15.90;88.20;;;15.84;68.40;97240.91;5041656;28;20040;-36
2023/06/16 00:07:06;;;;;;;4.28;2.90;;;15.90;88.20;;;15.84;69.43;97240.00;5041047;28;20032;-36
2023/06/16 00:09:32;;;;;;;7.05;2.92;;;15.90;88.90;;;15.78;71.07;97232.41;5046006;28;20113;-36
2023/06/16 00:11:58;;;;;;;3.85;2.58;;;15.90;89.60;;;15.77;70.61;97244.00;5038454;28;20028;-36
2023/06/16 00:14:23;;;;;;;4.07;3.28;;;15.90;89.40;;;15.76;70.97;97242.31;5043940;28;21423;-36
2023/06/16 00:16:49;;;;;;;3.88;2.97;;;15.80;89.60;;;15.73;71.43;97239.78;5047990;28;20036;-36
2023/06/16 00:19:15;;;;;;;2.92;2.50;;;15.80;90.30;;;15.63;72.01;97226.16;5043038;28;20037;-36
2023/06/16 00:21:44;;;;;;;5.38;3.08;;;15.80;90.10;;;15.63;72.98;97229.72;5045651;28;20067;-36
2023/06/16 00:24:10;;;;;;;4.75;2.80;;;15.70;90.30;;;15.64;73.47;97233.22;5039604;28;20036;-36
2023/06/16 00:26:36;;;;;;;3.30;2.78;;;15.70;90.40;;;15.63;73.64;97243.00;5048325;28;20082;-36
2023/06/16 00:29:03;;;;;;;2.85;2.40;;;15.80;90.50;;;15.62;73.38;97235.97;5043995;28;20028;-36
2023/06/16 00:31:32;;;;;;;3.28;2.58;;;15.70;90.40;;;15.58;75.49;97238.91;5042811;28;20047;-38
2023/06/16 00:33:59;;;;;;;3.22;2.50;;;15.70;90.90;;;15.52;76.50;97241.91;5045405;28;20028;-39
2023/06/16 00:36:25;;;;;;;3.83;3.10;;;15.60;91.10;;;15.40;76.81;97241.69;5045308;28;20142;-39
2023/06/16 00:38:51;;;;;;;3.20;2.65;;;15.50;91.20;;;15.39;76.98;97247.94;5056028;28;20032;-40
2023/06/16 00:41:17;;;;;;;4.95;2.90;;;15.50;91.20;;;15.33;76.72;97243.00;5047106;28;20051;-39
2023/06/16 00:43:43;;;;;;;3.83;2.85;;;15.50;91.20;;;15.29;77.03;97241.50;5046475;28;20059;-41
2023/06/16 00:46:26;;;;;;;3.70;3.13;;;15.40;91.30;;;15.24;77.43;97248.88;5044244;28;20032;-39
2023/06/16 00:48:52;;;;;;;7.25;3.35;;;15.30;91.40;;;15.19;78.09;97243.81;5045153;28;20147;-39
2023/06/16 00:51:18;;;;;;;3.92;2.95;;;15.30;91.50;;;15.12;79.70;97242.44;5043718;28;20111;-40
2023/06/16 00:53:44;;;;;;;5.05;3.17;;;15.30;91.90;;;15.06;80.06;97242.81;5044096;28;20039;-40
2023/06/16 00:56:11;;;;;;;3.58;3.03;;;15.20;92.00;;;14.99;81.14;97237.00;5042182;28;20116;-40
2023/06/16 00:58:37;;;;;;;3.13;2.75;;;15.10;92.20;;;14.93;81.40;97229.41;5046733;28;20093;-39
2023/06/16 01:01:04;;;;;;;4.95;3.22;;;15.00;92.30;;;14.88;82.10;97231.44;5055688;28;20437;-41
2023/06/16 01:03:32;;;;;;;4.07;3.08;;;15.00;92.50;;;14.82;84.37;97230.00;5059229;28;20528;-37
2023/06/16 01:06:15;;;;;;;6.90;3.60;;;15.00;93.00;;;14.79;85.51;97224.00;5047230;28;20034;-37
2023/06/16 01:08:53;;;;;;;;;;;14.90;93.30;;;14.73;86.75;97227.84;5048487;28;20037;-37
2023/06/16 01:11:48;;;;;;;4.00;3.45;;;14.90;93.50;;;14.70;87.48;97222.72;5043045;28;19930;-37
2023/06/16 01:14:22;;;;;;;4.95;3.90;;;14.80;93.80;;;14.67;88.08;97226.41;5041046;28;20563;-37
2023/06/16 01:16:51;;;;;;;4.82;3.88;;;14.80;93.90;;;14.54;89.04;97208.59;5040786;28;20053;-37
2023/06/16 01:19:28;;;;;;;6.80;3.70;;;14.80;94.20;;;14.61;89.86;97220.59;5040406;28;20024;-37
2023/06/16 01:22:06;;;;;;;4.88;3.60;;;14.70;94.40;;;14.57;90.51;97224.31;5040282;28;20039;-37
2023/06/16 01:24:33;;;;;;;7.28;3.60;;;14.70;94.60;;;14.53;91.30;97231.59;5043754;28;20078;-37
2023/06/16 01:27:00;;;;;;;5.35;3.40;;;14.60;94.70;;;14.37;91.39;97209.50;5042802;28;20113;-37
2023/06/16 01:29:27;;;;;;;5.00;3.45;;;14.60;94.80;;;14.42;90.97;97226.88;5037559;28;20430;-39
2023/06/16 01:31:57;;;;;;;4.90;3.63;;;14.50;94.80;;;14.45;91.18;97231.16;5038568;28;20035;-39
2023/06/16 01:34:23;;;;;;;8.57;4.20;;;14.60;94.90;;;14.41;92.83;97224.31;5039706;28;20020;-39
2023/06/16 01:36:50;;;;;;;5.47;3.53;;;14.50;95.30;;;14.37;93.42;97222.75;5046924;28;20036;-39
2023/06/16 01:39:17;;;;;;;8.93;3.60;;;14.50;95.50;;;14.33;93.51;97217.63;5061168;28;20040;-39
2023/06/16 01:41:44;;;;;;;5.00;3.83;;;14.40;95.50;;;14.31;93.47;97226.63;5053175;28;20045;-42
2023/06/16 01:44:10;;;;;;;6.10;4.20;;;14.40;95.50;;;14.28;94.12;97224.13;5040371;28;20118;-39
2023/06/16 01:46:37;;;;;;;6.22;4.10;;;14.40;95.80;;;14.25;95.17;97222.50;5049151;28;20075;-39
2023/06/16 01:49:03;;;;;;;6.35;3.90;;;14.40;96.00;;;14.13;95.75;97201.97;5051703;28;20044;-39
2023/06/16 01:51:29;;;;;;;5.25;4.00;;;14.40;96.60;;;14.09;96.02;97201.25;5049128;28;20353;-40
2023/06/16 01:53:56;;;;;;;6.35;4.00;;;14.30;96.30;;;14.18;97.02;97221.13;5050803;28;20308;-39
2023/06/16 01:56:21;;;;;;;5.68;3.85;;;14.30;96.60;;;14.18;98.08;97212.31;5047321;28;20028;-40
2023/06/16 01:58:47;;;;;;;6.80;4.13;;;14.30;96.80;;;14.13;97.96;97213.41;5050340;28;20040;-40
2023/06/16 02:01:28;;;;;;;6.13;4.22;;;14.30;96.90;;;14.14;98.66;97219.59;5051092;28;20455;-40
2023/06/16 02:04:15;;;;;;;7.28;4.28;;;14.30;97.10;;;14.11;99.89;97223.25;5052623;28;20784;-39
2023/06/16 02:06:58;;;;;;;6.65;4.47;;;14.30;97.50;;;14.11;99.67;97228.56;5054483;28;20028;-40
2023/06/16 02:09:25;;;;;;;4.53;3.40;;;14.20;97.40;;;14.07;100.00;97224.38;5052560;28;20037;-39
2023/06/16 02:11:53;;;;;;;4.95;3.70;;;14.20;97.70;;;13.91;100.00;97208.41;5049062;28;20029;-39
2023/06/16 02:14:20;;;;;;;9.77;3.67;;;14.20;98.10;;;13.94;100.00;97217.97;5047798;28;20033;-39
2023/06/16 02:16:46;;;;;;;5.43;3.70;;;14.20;98.30;;;13.94;100.00;97225.94;5047880;28;20025;-39
2023/06/16 02:19:12;;;;;;;5.55;4.10;;;14.10;98.70;;;13.89;100.00;97220.03;5046821;28;20039;-41
2023/06/16 02:21:42;;;;;;;5.85;4.22;;;14.00;99.00;;;13.83;100.00;97226.50;5053179;28;20511;-40
2023/06/16 02:24:08;;;;;;;8.27;4.10;;;14.00;99.20;;;13.78;100.00;97233.84;5051507;28;20033;-39
2023/06/16 02:26:34;;;;;;;5.70;4.38;;;13.90;99.30;;;13.71;100.00;97227.16;5033891;28;20043;-39
2023/06/16 02:29:01;;;;;;;6.07;4.57;;;13.90;99.20;;;13.74;100.00;97234.94;5045470;28;20045;-40
2023/06/16 02:31:27;;;;;;;8.02;4.82;;;13.90;99.30;;;13.67;100.00;97230.91;5044349;28;20025;-40
2023/06/16 02:33:55;;;;;;;5.72;4.10;;;13.90;99.00;;;13.69;100.00;97239.63;5047856;28;20517;-39
2023/06/16 02:36:21;;;;;;;8.82;4.45;;;13.90;98.80;;;13.71;100.00;97235.09;5049474;28;20025;-40
2023/06/16 02:38:47;;;;;;;5.75;4.72;;;13.90;98.90;;;13.68;100.00;97229.97;5064431;22;20052;-37
2023/06/16 02:41:13;;;;;;;6.07;4.20;;;13.90;99.20;;;13.76;100.00;97243.66;5041303;28;20047;-37
2023/06/16 02:43:39;;;;;;;7.82;4.10;;;13.90;99.40;;;13.70;100.00;97230.75;5045104;28;20028;-37
2023/06/16 02:46:06;;;;;;;7.15;4.03;;;13.90;99.40;;;13.79;100.00;97240.03;5042252;28;20051;-37
2023/06/16 02:48:32;;;;;;;5.85;3.92;;;14.00;99.40;;;13.76;100.00;97230.41;5043595;28;20028;-37
2023/06/16 02:50:58;;;;;;;5.95;4.15;;;14.00;99.30;;;13.80;100.00;97237.28;5046518;28;20036;-37
2023/06/16 02:53:24;;;;;;;5.43;4.43;;;14.00;99.30;;;13.83;100.00;97246.88;5041948;28;20781;-37
2023/06/16 02:55:51;;;;;;;6.75;4.00;;;14.00;99.50;;;13.85;100.00;97237.88;5040849;28;21310;-37
2023/06/16 02:58:18;;;;;;;4.75;4.03;;;14.00;99.50;;;13.89;100.00;97236.81;5047384;28;20033;-37
2023/06/16 03:00:44;;;;;;;6.38;4.18;;;14.00;99.50;;;13.92;100.00;97236.63;5047688;28;20537;-37
2023/06/16 03:03:09;;;;;;;6.65;4.93;;;14.10;99.70;;;13.87;100.00;97222.78;5056491;28;20028;-37
2023/06/16 03:05:36;;;;;;;6.47;4.20;;;14.10;99.80;;;13.98;100.00;97239.88;5052944;28;20101;-37
2023/06/16 03:08:02;;;;;;;9.02;4.22;;;14.10;99.90;;;13.99;100.00;97237.16;5051350;28;20024;-37
2023/06/16 03:10:28;;;;;;;5.88;4.30;;;14.10;99.90;;;13.99;100.00;97239.81;5053025;28;20405;-37
2023/06/16 03:12:53;;;;;;;7.60;4.80;;;14.20;99.90;;;14.00;100.00;97235.34;5051680;28;20032;-37
2023/06/16 03:15:19;;;;;;;6.15;4.28;;;14.10;99.80;;;13.97;100.00;97244.34;5047064;28;20089;-37
2023/06/16 03:17:47;;;;;;;5.43;4.32;;;14.20;99.80;;;13.94;100.00;97245.38;5057316;28;20056;-37
2023/06/16 03:20:13;;;;;;;5.32;4.25;;;14.20;99.90;;;13.93;100.00;97251.59;5051202;28;20036;-37
2023/06/16 03:22:38;;;;;;;6.35;4.38;;;14.10;99.90;;;13.91;100.00;97245.53;5051328;28;20036;-37
2023/06/16 03:25:05;;;;;;;7.15;4.47;;;14.10;99.90;;;13.83;100.00;97245.06;5047468;28;20158;-37
2023/06/16 03:27:30;;;;;;;5.47;4.43;;;14.00;99.90;;;13.83;100.00;97238.91;5052419;28;20060;-37
2023/06/16 03:29:57;;;;;;;6.05;4.53;;;14.00;99.90;;;13.80;100.00;97245.25;5054417;28;20450;-37
2023/06/16 03:32:23;;;;;;;5.88;4.10;;;14.00;99.90;;;13.78;100.00;97240.94;5052092;28;20040;-37
2023/06/16 03:34:49;;;;;;;6.15;4.13;;;13.90;99.90;;;13.76;100.00;97241.03;5050728;28;20044;-37
2023/06/16 03:37:16;;;;;;;5.18;4.15;;;13.90;99.90;;;13.77;100.00;97237.44;5054595;28;20032;-37
2023/06/16 03:39:42;;;;;;;8.50;4.22;;;13.90;99.90;;;13.77;100.00;97248.06;5053719;28;20093;-37
2023/06/16 03:42:08;;;;;;;6.68;4.20;;;13.90;99.90;;;13.75;100.00;97247.28;5044070;28;20111;-37
2023/06/16 03:44:34;;;;;;;7.40;4.38;;;13.90;99.90;;;13.74;100.00;97250.84;5044357;28;20086;-37
2023/06/16 03:46:59;;;;;;;6.47;4.45;;;13.90;99.90;;;13.77;100.00;97253.34;5048291;28;20036;-37
2023/06/16 03:49:26;;;;;;;6.82;4.40;;;13.90;99.90;;;13.77;100.00;97250.69;5049442;28;20036;-37
2023/06/16 03:51:52;;;;;;;6.03;4.25;;;13.90;99.90;;;13.76;100.00;97248.97;5048603;28;20127;-37
2023/06/16 03:54:19;;;;;;;7.57;4.85;;;13.90;99.90;;;13.72;100.00;97253.56;5047216;28;20028;-37
2023/06/16 03:56:45;;;;;;;6.47;4.32;;;13.90;99.90;;;13.71;100.00;97248.34;5048910;28;20028;-37
2023/06/16 03:59:11;;;;;;;5.03;4.18;;;13.90;99.90;;;13.69;100.00;97251.09;5042125;28;20031;-37
2023/06/16 04:01:37;;;;;;;7.50;4.38;;;13.90;99.90;;;13.69;100.00;97247.56;5051214;28;20044;-37
2023/06/16 04:04:05;;;;;;;6.10;4.40;;;13.90;99.90;;;13.64;100.00;97239.00;5046543;28;20043;-37
2023/06/16 04:06:32;;;;;;;8.60;4.53;;;13.80;99.90;;;13.74;100.00;97251.69;5045747;28;20037;-37
2023/06/16 04:08:58;;;;;;;5.43;4.35;;;13.90;99.90;;;13.80;100.00;97254.97;5049787;28;20094;-37
2023/06/16 04:11:24;;;;;;;5.05;4.07;;;14.00;99.90;;;13.83;100.00;97255.66;5042974;28;20036;-37
2023/06/16 04:13:49;;;;;;;6.22;4.20;;;14.00;99.90;;;13.91;100.00;97253.47;5048905;28;20025;-37
2023/06/16 04:16:15;;;;;;;4.35;3.95;;;14.00;99.90;;;13.98;100.00;97263.75;5041887;28;20032;-37
2023/06/16 04:18:41;;;;;;;7.78;3.92;;;14.10;99.90;;;14.03;100.00;97256.41;5053103;28;20033;-37
2023/06/16 04:21:06;;;;;;;6.75;4.38;;;14.20;99.90;;;14.09;100.00;97258.75;5048333;28;20330;-37
2023/06/16 04:23:33;;;;;;;6.20;3.92;;;14.20;99.90;;;14.14;100.00;97256.72;5050445;28;20024;-37
2023/06/16 04:25:59;;;;;;;5.68;3.83;;;14.30;99.90;;;14.20;100.00;97259.03;5044837;28;20048;-37
2023/06/16 04:28:25;;;;;;;4.90;3.78;;;14.30;99.90;;;14.30;100.00;97259.38;5048789;28;20033;-37
2023/06/16 04:30:51;;;;;;;5.53;4.00;;;14.40;99.90;;;14.37;100.00;97262.56;5040334;28;20028;-37
2023/06/16 04:33:22;;;;;;;6.13;3.80;;;14.50;99.90;;;14.45;100.00;97266.50;5048335;28;20086;-37
2023/06/16 04:35:50;;;;;;;5.53;4.03;;;14.60;99.90;;;14.55;100.00;97269.50;5047165;28;20965;-38
2023/06/16 04:38:16;;;;;;;6.78;4.18;;;14.70;99.90;;;14.62;100.00;97265.59;5049823;28;20048;-38
2023/06/16 04:40:43;;;;;;;5.75;4.43;;;14.80;99.90;;;14.70;100.00;97273.16;5052373;28;20078;-37
2023/06/16 04:43:08;;;;;;;5.00;3.80;;;14.80;99.90;;;14.77;100.00;97263.03;5047094;28;20032;-37
2023/06/16 04:45:34;;;;;;;7.97;4.03;;;14.90;99.90;;;14.83;100.00;97268.03;5040909;28;20045;-38
2023/06/16 04:48:00;;;;;;;6.25;4.00;;;15.00;99.90;;;14.90;100.00;97264.06;5045923;28;20163;-37
2023/06/16 04:50:25;;;;;;;4.78;3.97;;;15.00;99.90;;;14.98;100.00;97260.97;5046337;28;20675;-37
2023/06/16 04:52:51;;;;;;;6.55;4.38;;;15.10;99.90;;;15.06;100.00;97267.56;5049757;28;20086;-36
2023/06/16 04:55:17;;;;;;;5.70;4.15;;;15.20;99.90;;;15.15;100.00;97262.69;5045815;28;20506;-38
2023/06/16 04:57:44;;;;;;;6.43;4.20;;;15.30;99.90;;;15.23;100.00;97257.75;5050377;28;20032;-38
2023/06/16 05:00:12;;;;;;;4.93;4.20;;;15.40;99.90;;;15.28;100.00;97253.03;5046480;28;20035;-38
2023/06/16 05:02:37;;;;;;;6.68;3.97;;;15.40;99.90;;;15.37;100.00;97252.50;5054873;28;20043;-38
2023/06/16 05:05:03;;;;;;;4.80;3.80;;;15.50;99.90;;;15.48;100.00;97254.53;5042554;28;20662;-37
2023/06/16 05:07:31;;;;;;;5.75;3.70;;;15.60;99.90;;;15.57;100.00;97259.28;5044987;28;20480;-37
2023/06/16 05:09:57;;;;;;;5.57;3.83;;;15.70;99.90;;;15.65;100.00;97257.06;5049034;28;20063;-38
2023/06/16 05:12:25;;;;;;;5.45;3.88;;;15.80;99.90;;;15.77;100.00;97262.59;5043548;28;21062;-37
2023/06/16 05:14:52;;;;;;;5.25;3.67;;;15.90;99.90;;;15.88;100.00;97259.28;5045498;28;20711;-38
2023/06/16 05:17:18;;;;;;;4.55;3.50;;;16.00;99.90;;;15.99;98.21;97257.72;5038925;28;20262;-37
2023/06/16 05:19:43;;;;;;;6.65;3.90;;;16.10;99.90;;;16.07;97.71;97254.56;5049143;28;20493;-38
2023/06/16 05:22:09;;;;;;;4.38;3.80;;;16.20;99.90;;;16.27;94.81;97271.97;5041278;28;20079;-38
2023/06/16 05:24:35;;;;;;;5.38;4.00;;;16.30;99.90;;;16.39;92.20;97251.72;5041564;28;20112;-38
2023/06/16 05:27:00;;;;;;;7.82;3.80;;;16.50;99.40;;;16.81;90.38;97271.22;5040626;28;20040;-37
2023/06/16 05:29:26;;;;;;;7.55;3.97;;;16.70;99.20;;;17.32;87.08;97265.31;5029245;28;20025;-38
2023/06/16 05:31:52;;;;;;;7.32;4.20;;;17.00;98.80;;;17.77;83.63;97270.34;5035948;28;20029;-37
2023/06/16 05:34:18;;;;;;;4.85;3.90;;;17.30;98.30;;;17.98;81.51;97266.22;5035718;28;20054;-37
2023/06/16 05:36:44;;;;;;;5.47;3.60;;;17.50;97.90;;;18.03;82.03;97266.72;5043290;28;20448;-38
2023/06/16 05:39:13;;;;;;;4.93;3.45;;;17.70;97.80;;;17.96;82.96;97267.25;5048907;28;20032;-38
2023/06/16 05:41:38;;;;;;;5.78;3.53;;;17.80;97.70;;;17.89;78.96;97273.03;5047621;28;20044;-38
2023/06/16 05:44:04;;;;;;;3.75;2.90;;;17.80;96.60;;;17.85;71.75;97271.53;5047103;28;20032;-37
2023/06/16 05:46:30;;;;;;;3.33;2.97;;;17.80;94.70;;;17.85;68.11;97271.53;5051574;28;20075;-38
2023/06/16 05:48:57;;;;;;;5.80;3.25;;;17.90;93.60;;;17.94;69.80;97278.03;5057259;28;20064;-38
2023/06/16 05:51:23;;;;;;;5.40;3.30;;;18.00;93.80;;;18.01;72.83;97273.16;5039068;28;20348;-38
2023/06/16 05:53:49;;;;;;;8.07;3.90;;;18.10;94.50;;;18.10;72.43;97277.84;5044749;28;20017;-38
2023/06/16 05:56:16;;;;;;;5.43;4.22;;;18.20;94.40;;;18.24;71.82;97277.72;5049787;28;20082;-38
2023/06/16 05:58:42;;;;;;;6.60;3.78;;;18.30;94.30;;;18.37;71.22;97280.38;5044979;28;20028;-37
2023/06/16 06:01:08;;;;;;;6.07;3.22;;;18.40;94.10;;;18.52;69.59;97281.16;5047448;28;20032;-37
2023/06/16 06:03:34;;;;;;;6.85;3.55;;;18.60;93.70;;;18.67;68.28;97284.53;5048743;28;20545;-37
2023/06/16 06:06:01;;;;;;;5.70;3.13;;;18.70;93.30;;;18.83;67.85;97284.31;5047361;28;20179;-37
2023/06/16 06:08:28;;;;;;;5.70;3.45;;;18.80;93.20;;;18.97;65.88;97286.84;5044180;28;20056;-37
2023/06/16 06:10:54;;;;;;;3.58;3.13;;;19.00;92.70;;;19.16;64.56;97288.16;5043347;28;20036;-37
2023/06/16 06:13:21;;;;;;;4.28;3.03;;;19.10;92.40;;;19.32;64.11;97293.22;5047612;28;20410;-37
2023/06/16 06:15:47;;;;;;;4.80;3.50;;;19.30;92.20;;;19.48;62.87;97290.28;5046889;28;20039;-37
2023/06/16 06:18:13;;;;;;;4.30;3.50;;;19.40;91.90;;;19.60;62.05;97300.91;5044976;28;20036;-37
2023/06/16 06:20:39;;;;;;;6.88;3.40;;;19.60;91.60;;;19.71;60.36;97294.72;5046797;28;20024;-37
2023/06/16 06:23:05;;;;;;;4.80;3.47;;;19.70;91.30;;;19.82;59.35;97305.50;5047467;28;20032;-37
2023/06/16 06:25:31;;;;;;;5.07;3.50;;;19.80;90.70;;;19.86;57.92;97287.38;5046753;28;21298;-37
2023/06/16 06:27:57;;;;;;;4.43;3.30;;;19.90;90.40;;;19.98;57.37;97297.16;5045454;28;20043;-37
2023/06/16 06:30:24;;;;;;;4.20;3.00;;;20.00;90.10;;;20.20;56.65;97308.88;5049128;28;20028;-37
2023/06/16 06:32:50;;;;;;;9.32;3.55;;;20.10;89.60;;;20.26;52.58;97311.09;5048044;28;20706;-38
2023/06/16 06:35:16;;;;;;;4.43;3.28;;;20.20;86.20;;;20.34;53.01;97316.69;5045181;28;20111;-37
2023/06/16 06:37:42;;;;;;;4.88;3.70;;;20.30;86.70;;;20.38;54.75;97317.31;5050965;28;20591;-38
2023/06/16 06:40:08;;;;;;;6.20;3.35;;;20.30;89.20;;;20.45;51.52;97320.38;5046944;28;20032;-37
2023/06/16 06:42:34;;;;;;;6.97;3.50;;;20.40;84.60;;;20.54;53.62;97317.81;5047304;28;20074;-37
2023/06/16 06:45:01;;;;;;;4.88;3.45;;;20.50;86.70;;;20.62;52.30;97319.94;5050375;28;20687;-38
2023/06/16 06:47:26;;;;;;;5.97;3.38;;;20.50;85.70;;;20.72;52.12;97320.88;5051199;28;20492;-37
2023/06/16 06:49:54;;;;;;;5.25;3.58;;;20.60;85.40;;;20.77;52.47;97321.38;5049387;28;20032;-38
2023/06/16 06:52:19;;;;;;;5.20;3.45;;;20.60;85.20;;;20.91;53.26;97322.13;5050770;28;20052;-37
2023/06/16 06:54:45;;;;;;;4.95;3.63;;;20.70;86.70;;;20.99;52.45;97319.66;5055386;28;20489;-37
2023/06/16 06:57:12;;;;;;;3.63;3.20;;;20.80;86.00;;;21.21;52.61;97334.00;5051963;28;20106;-37
2023/06/16 06:59:40;;;;;;;4.07;3.30;;;21.00;85.90;;;21.35;50.25;97336.41;5050632;28;20110;-38
2023/06/16 07:02:06;;;;;;;3.63;3.00;;;21.20;85.00;;;21.50;50.61;97334.34;5047560;28;20036;-38
2023/06/16 07:04:33;;;;;;;4.10;3.25;;;21.30;84.10;;;21.62;49.66;97336.00;5055935;28;20115;-37
2023/06/16 07:06:58;;;;;;;4.95;3.50;;;21.40;83.10;;;21.69;49.51;97339.03;5054551;28;20491;-38
2023/06/16 07:09:24;;;;;;;4.45;3.42;;;21.50;82.90;;;21.73;48.88;97348.53;5054107;28;20041;-37
2023/06/16 07:11:50;;;;;;;5.03;3.50;;;21.50;81.70;;;21.77;47.96;97344.63;5046281;28;20614;-38
2023/06/16 07:14:15;;;;;;;4.15;3.25;;;21.60;81.10;;;21.81;47.72;97351.44;5045222;28;20036;-37
2023/06/16 07:16:41;;;;;;;5.63;3.60;;;21.60;80.50;;;21.88;46.44;97346.41;5051872;28;20035;-38
2023/06/16 07:19:07;;;;;;;6.38;3.00;;;21.70;79.70;;;21.97;46.79;97347.47;5040952;28;20319;-38
2023/06/16 07:21:32;;;;;;;4.10;3.30;;;21.80;79.30;;;22.10;46.70;97346.28;5046460;28;20027;-37
2023/06/16 07:23:58;;;;;;;5.22;3.55;;;21.90;78.90;;;22.15;46.32;97348.59;5044724;28;20043;-38
2023/06/16 07:26:25;;;;;;;5.35;3.90;;;22.00;79.10;;;22.22;45.85;97348.94;5043117;28;20449;-38
2023/06/16 07:28:50;;;;;;;4.85;3.55;;;22.10;77.90;;;22.16;45.69;97350.28;5051931;28;20039;-38
2023/06/16 07:31:16;;;;;;;4.68;3.63;;;22.10;76.80;;;22.19;44.93;97343.81;5050373;28;20032;-38
2023/06/16 07:33:42;;;;;;;5.03;3.58;;;22.10;76.00;;;22.27;46.32;97352.09;5054898;28;20031;-38
2023/06/16 07:36:08;;;;;;;6.30;3.20;;;22.20;77.80;;;22.38;45.35;97353.84;5051492;28;20021;-38
2023/06/16 07:38:33;;;;;;;5.15;3.40;;;22.20;76.90;;;22.46;44.05;97354.91;5057614;28;20596;-38
2023/06/16 07:41:02;;;;;;;4.30;3.50;;;22.30;75.10;;;22.51;42.65;97364.44;5054448;28;20040;-38
2023/06/16 07:43:27;;;;;;;5.68;3.50;;;22.40;72.90;;;22.46;43.09;97359.44;5053315;28;20034;-38
2023/06/16 07:45:53;;;;;;;5.93;3.60;;;22.40;72.00;;;22.48;43.06;97355.63;5058134;28;20456;-38
2023/06/16 07:48:19;;;;;;;4.72;3.55;;;22.40;73.20;;;22.57;43.23;97353.97;5057225;28;20024;-38
2023/06/16 07:50:44;;;;;;;4.95;3.25;;;22.40;73.40;;;22.67;42.99;97352.19;5055844;28;20458;-38
2023/06/16 07:53:10;;;;;;;5.43;3.17;;;22.50;73.20;;;22.79;42.99;97352.09;5057533;28;20382;-38
2023/06/16 07:55:36;;;;;;;5.70;3.38;;;22.60;73.00;;;22.86;39.37;97355.94;5054890;28;20327;-38
2023/06/16 07:58:02;;;;;;;5.75;3.60;;;22.80;70.10;;;22.96;39.82;97358.69;5056922;28;20078;-39
2023/06/16 08:00:28;;;;;;;5.57;3.80;;;22.80;68.40;;;22.99;40.46;97348.53;5051947;28;20318;-38
2023/06/16 08:02:53;;;;;;;5.50;3.28;;;22.90;69.40;;;22.99;39.12;97356.59;5056431;28;20028;-38
2023/06/16 08:05:20;;;;;;;12.50;3.58;;;22.90;67.00;;;23.10;40.72;97355.69;5054398;28;20488;-38
2023/06/16 08:07:46;;;;;;;4.82;3.30;;;23.00;69.40;;;23.22;41.00;97354.59;5058810;28;20115;-38
2023/06/16 08:10:13;;;;;;;5.50;3.35;;;23.00;70.00;;;23.27;40.85;97351.47;5056633;28;20600;-38
2023/06/16 08:12:39;;;;;;;4.57;3.50;;;23.10;69.70;;;23.39;40.54;97355.75;5052320;28;20033;-38
2023/06/16 08:15:05;;;;;;;6.43;3.40;;;23.20;69.90;;;23.43;36.57;97357.16;5052103;28;20029;-38
2023/06/16 08:17:32;;;;;;;5.18;3.47;;;23.30;62.80;;;23.43;37.72;97359.00;5054094;28;20024;-39
2023/06/16 08:19:58;;;;;;;5.28;3.05;;;23.30;64.90;;;23.50;37.11;97356.63;5057075;28;20033;-38
2023/06/16 08:22:23;;;;;;;7.25;3.22;;;23.30;63.90;;;23.54;36.99;97358.03;5048469;28;20051;-38
2023/06/16 08:24:49;;;;;;;8.68;3.60;;;23.40;64.00;;;23.49;39.88;97349.53;5053777;28;20437;-38
2023/06/16 08:27:15;;;;;;;5.38;3.40;;;23.40;68.30;;;23.49;36.70;97346.84;5052002;28;20033;-38
2023/06/16 08:29:41;;;;;;;5.78;3.58;;;23.40;63.30;;;23.62;36.99;97347.44;5051611;28;20028;-35
2023/06/16 08:32:07;;;;;;;6.15;3.30;;;23.40;63.30;;;23.64;36.60;97348.16;5048568;28;20072;-35
2023/06/16 08:34:35;;;;;;;3.85;2.90;;;23.50;62.40;;;23.64;36.27;97335.53;5053132;28;20030;-35
2023/06/16 08:37:01;;;;;;;4.20;2.97;;;23.60;62.80;;;23.75;34.03;97341.78;5052075;28;20279;-35
2023/06/16 08:39:27;;;;;;;4.38;3.05;;;23.60;58.90;;;23.82;33.92;97349.19;5055703;28;20036;-35
2023/06/16 08:41:53;;;;;;;9.20;3.53;;;23.60;58.10;;;23.82;32.83;97341.09;5053462;28;20312;-36
2023/06/16 08:44:21;;;;;;;4.18;2.95;;;23.70;57.40;;;23.87;33.20;97348.78;5054363;28;20036;-36
2023/06/16 08:46:48;;;;;;;7.15;3.22;;;23.70;57.30;;;23.86;33.18;97336.28;5054046;28;20984;-36
2023/06/16 08:49:16;;;;;;;4.03;3.10;;;23.80;57.50;;;23.91;32.55;97350.19;5052635;28;20036;-36
2023/06/16 08:51:48;;;;;;;3.70;3.03;;;23.80;57.20;;;23.99;34.49;97339.56;5054159;28;20059;-36
2023/06/16 08:54:14;;;;;;;3.17;2.72;;;23.80;58.80;;;24.09;33.52;97347.63;5051999;28;20032;-36
2023/06/16 08:56:42;;;;;;;5.90;3.47;;;23.90;58.60;;;24.07;32.16;97349.63;5052265;28;20044;-37
2023/06/16 08:59:10;;;;;;;6.22;3.13;;;24.00;55.90;;;24.01;32.51;97336.69;5050677;28;20024;-36
2023/06/16 09:01:39;;;;;;;4.78;3.30;;;24.00;56.50;;;24.02;31.30;97347.34;5051915;28;20290;-37
2023/06/16 09:04:08;;;;;;;3.63;2.83;;;23.90;54.70;;;24.01;33.11;97345.66;5052024;28;20055;-36
2023/06/16 09:06:39;;;;;;;4.50;3.20;;;23.90;56.30;;;24.14;33.28;97345.34;5046919;28;20928;-36
2023/06/16 09:09:05;;;;;;;6.55;3.15;;;23.90;56.80;;;24.23;33.33;97340.97;5049646;28;20436;-37
2023/06/16 09:11:31;;;;;;;3.63;2.55;;;24.10;57.10;;;24.33;33.45;97336.38;5054550;28;20033;-37
2023/06/16 09:13:57;;;;;;;3.95;3.00;;;24.20;57.80;;;24.42;32.23;97336.50;5054718;28;20017;-36
2023/06/16 09:16:24;;;;;;;4.47;2.58;;;24.30;55.80;;;24.36;32.01;97341.50;5054396;28;22143;-36
2023/06/16 09:18:50;;;;;;;8.15;3.15;;;24.20;55.30;;;24.37;33.47;97340.50;5053649;28;20493;-36
2023/06/16 09:21:22;;;;;;;5.43;3.20;;;24.30;57.30;;;24.32;31.24;97331.16;5055650;28;20119;-36
2023/06/16 09:23:58;;;;;;;6.20;2.90;;;24.20;54.00;;;24.30;30.30;97336.69;5050261;28;20040;-36
2023/06/16 09:26:29;;;;;;;4.28;2.90;;;24.20;53.30;;;24.41;31.45;97332.97;5053767;28;20036;-36
2023/06/16 09:28:56;;;;;;;4.43;3.00;;;24.30;54.40;;;24.43;32.95;97325.59;5058494;28;20020;-36
2023/06/16 09:31:23;;;;;;;5.25;3.30;;;24.40;56.20;;;24.47;32.27;97328.84;5046010;28;20103;-36
2023/06/16 09:33:49;;;;;;;6.55;4.00;;;24.40;55.60;;;24.34;33.45;97324.63;5054016;28;20070;-36
2023/06/16 09:36:27;;;;;;;4.55;3.03;;;24.30;55.90;;;24.34;32.06;97329.16;5050226;28;20082;-37
2023/06/16 09:38:53;;;;;;;4.32;3.10;;;24.30;55.30;;;24.37;32.80;97323.47;5050172;28;20125;-37
2023/06/16 09:41:19;;;;;;;4.47;3.35;;;24.30;56.00;;;24.38;33.04;97330.56;5053102;28;20541;-36
2023/06/16 09:43:45;;;;;;;4.07;3.22;;;24.30;55.60;;;24.32;33.45;97323.06;5053498;28;20029;-37
2023/06/16 09:46:13;;;;;;;4.82;3.15;;;24.20;56.70;;;24.07;33.05;97325.38;5048381;28;20162;-36
2023/06/16 09:48:50;;;;;;;7.95;3.55;;;24.00;56.10;;;24.06;31.97;97320.13;5047442;28;20674;-36
2023/06/16 09:51:22;;;;;;;6.07;3.20;;;24.00;54.80;;;24.18;32.21;97314.44;5048681;28;20040;-36
2023/06/16 09:53:49;;;;;;;6.95;3.03;;;24.10;54.70;;;24.36;32.93;97319.09;5052914;28;20033;-36
2023/06/16 09:56:19;;;;;;;4.28;3.22;;;24.30;56.20;;;24.37;31.60;97310.00;5051384;28;20031;-36
2023/06/16 09:58:47;;;;;;;5.75;3.33;;;24.40;55.80;;;24.52;30.95;97313.94;5044908;28;20039;-36
2023/06/16 10:01:14;;;;;;;7.80;3.30;;;24.50;52.40;;;24.66;30.95;97314.50;5050068;28;20032;-36
2023/06/16 10:03:43;;;;;;;5.50;3.30;;;24.60;53.40;;;24.70;30.25;97314.06;5054630;28;20245;-36
2023/06/16 10:06:20;;;;;;;5.97;3.70;;;24.70;52.20;;;24.92;29.58;97310.13;5037508;28;20033;-36
2023/06/16 10:08:49;;;;;;;5.18;3.20;;;24.90;51.20;;;25.14;30.76;97316.13;5052820;28;20075;-37
2023/06/16 10:11:16;;;;;;;5.95;3.20;;;25.00;52.00;;;25.30;32.33;97310.97;5053513;28;20114;-36
2023/06/16 10:13:52;;;;;;;4.78;3.28;;;25.20;55.10;;;25.33;31.21;97296.31;5055018;28;20056;-37
2023/06/16 10:16:21;;;;;;;6.22;3.80;;;25.20;54.20;;;25.24;30.57;97316.06;5051229;28;20482;-36
2023/06/16 10:18:48;;;;;;;5.50;2.92;;;25.10;53.00;;;25.18;33.17;97295.06;5053343;28;20494;-36